• Join FlightAware (Why Join?)
  • Login
  • US Flag 
11:04AM EDT


 

Airport Tracker/Info


-or-


 

Live Flight TrackerFlight Track Log ✈ AVN11 ✈ 11-Oct-2013 ✈ YSSY / SYD - NVVV / VLI

Flight Track Log - Related Links

Times and Time Zones

All times are in EDT time to prevent confusion due to time zone crossing. See the AVN11 flight status page for this flight to view local times or setup timezone preferences in your user account.

Time Position Orientation Groundspeed Altitude Reporting Facility
EDT Latitude Longitude Course Direction KTS MPH feet Rate Location/Type
09:12PM -34.0263 151.1894 353° North 6,600  Level Aus ATC (Calculated)
09:12PM -33.9620 151.1800 340° North 169 194 600 -14,220 Descending FlightAware
09:13PM -33.9779 151.1817 340° North 176 203 1,400 1,800 Climbing FlightAware ADS-B
09:13PM -33.9794 151.1815 184° South 195 224 1,800 1,320 Climbing FlightAware ADS-B
09:14PM -34.0226 151.1767 185° South 217 250 2,500 1,920 Climbing FlightAware ADS-B
09:14PM -34.0352 151.1785 173° South 227 261 3,300 1,860 Climbing FlightAware ADS-B
09:14PM -34.0648 151.1873 166° South 248 285 3,800 1,260 Climbing FlightAware ADS-B
09:14PM -34.0691 151.1893 159° South 266 306 4,000 2,160 Climbing FlightAware ADS-B
09:15PM -34.0936 151.2096 145° Southeast 273 314 4,900 2,940 Climbing FlightAware ADS-B
09:15PM -34.1247 151.2482 134° Southeast 280 322 6,600 2,760 Climbing FlightAware ADS-B
09:16PM -34.1286 151.2664 104° East 291 335 7,000 2,160 Climbing FlightAware ADS-B
09:16PM -34.1282 151.2803 88° East 301 346 7,400 1,800 Climbing FlightAware ADS-B
09:16PM -34.1231 151.2991 72° East 310 357 7,600 1,800 Climbing FlightAware ADS-B
09:16PM -34.1168 151.3111 58° Northeast 312 359 8,000 2,220 Climbing FlightAware ADS-B
09:17PM -34.0864 151.3609 54° Northeast 324 373 9,200 2,100 Climbing FlightAware ADS-B
09:17PM -34.0706 151.3864 53° Northeast 330 380 9,900 1,740 Climbing FlightAware ADS-B
09:18PM -34.0334 151.4485 53° Northeast 340 391 10,900 1,380 Climbing Aus ATC (RADAR)
09:18PM -34.0202 151.4707 53° Northeast 377 434 11,100 1,680 Climbing FlightAware ADS-B
09:18PM -33.9863 151.5264 54° Northeast 390 449 12,200 2,040 Climbing FlightAware ADS-B
09:19PM -33.9580 151.5725 53° Northeast 401 461 13,200 2,880 Climbing FlightAware ADS-B
09:19PM -33.9432 151.5966 54° Northeast 406 467 14,100 2,160 Climbing FlightAware ADS-B (YSSY / SYD)
09:19PM -33.9287 151.6255 59° Northeast 412 474 14,100 1,380 Level FlightAware ADS-B
09:20PM -33.9192 151.6680 75° East 417 480 14,900 2,220 Climbing FlightAware ADS-B
09:20PM -33.9165 151.7638 88° East 431 496 16,400 2,220 Climbing FlightAware ADS-B
09:21PM -33.9134 151.8567 88° East 440 506 17,900 2,340 Climbing FlightAware ADS-B
09:21PM -33.9107 151.9377 88° East 446 513 19,100 2,040 Climbing FlightAware ADS-B
09:22PM -33.9079 152.0195 88° East 454 522 20,200 1,980 Climbing FlightAware ADS-B
09:23PM -33.9066 152.1209 89° East 461 531 21,500 2,040 Climbing FlightAware ADS-B
09:23PM -33.9073 152.2079 91° East 464 534 22,700 2,040 Climbing FlightAware ADS-B
09:24PM -33.9083 152.3309 91° East 455 524 24,300 1,800 Climbing Aus ATC (RADAR)
09:24PM -33.9080 152.3360 91° East 469 540 24,300 1,200 Level FlightAware
09:25PM -33.9090 152.4100 91° East 476 548 25,000 1,500 Climbing FlightAware
09:25PM -33.9090 152.5130 90° East 484 557 26,000 1,500 Climbing FlightAware
09:26PM -33.9097 152.6249 90° East 475 547 26,900 1,260 Climbing Aus ATC (RADAR)
09:26PM -33.9100 152.6130 90° East 493 567 26,800 720 Descending FlightAware
09:26PM -33.9050 152.7040 86° East 505 581 27,300 1,080 Climbing FlightAware
09:27PM -33.8890 152.7670 73° East 510 587 27,800 1,200 Climbing FlightAware
09:27PM -33.8570 152.8560 67° East 519 597 28,400 1,020 Climbing FlightAware
09:28PM -33.8230 152.9510 67° East 524 603 29,000 1,020 Climbing FlightAware
09:28PM -33.7890 153.0470 67° East 531 611 29,600 900 Climbing FlightAware
09:29PM -33.7570 153.1420 68° East 541 623 30,100 1,200 Climbing FlightAware
09:30PM -33.7220 153.2400 67° East 536 617 31,000 1,260 Climbing FlightAware
09:30PM -33.6910 153.3290 67° East 540 621 31,600 1,200 Climbing FlightAware
09:31PM -33.6590 153.4200 67° East 535 616 32,400 1,080 Climbing FlightAware
09:31PM -33.6230 153.5210 67° East 540 621 32,900 900 Climbing FlightAware
09:32PM -33.5940 153.6030 67° East 540 621 33,400 660 Climbing FlightAware
09:33PM -33.5410 153.7480 66° East 539 620 33,900 1,080 Climbing FlightAware
09:33PM -33.5090 153.8380 67° East 530 610 35,000 840 Climbing FlightAware
09:34PM -33.4618 153.9707 67° East 509 586 35,000  Level Aus ATC (RADAR)
09:34PM -33.4640 153.9620 67° East 533 613 35,000  Level FlightAware
09:35PM -33.4210 154.0850 67° East 531 611 35,000  Level FlightAware
09:36PM -33.3770 154.2070 67° East 529 609 35,000  Level FlightAware
09:36PM -33.3450 154.2920 66° East 529 609 35,000  Level FlightAware
09:37PM -33.3150 154.3730 66° East 529 609 35,000  Level FlightAware
09:37PM -33.2628 154.5185 66° East 504 580 35,000  Level Aus ATC (RADAR)
09:37PM -33.2690 154.5030 66° East 526 605 35,000 780 Level FlightAware
09:38PM -33.2250 154.5770 55° Northeast 499 574 35,400 540 Climbing FlightAware
09:39PM -33.1406 154.6602 55° Northeast 477 549 35,700 120 Climbing Aus ATC (RADAR)
09:39PM -33.1520 154.6490 55° Northeast 480 552 35,500 480 Descending FlightAware
09:39PM -33.0779 154.7194 55° Northeast 485 558 36,000 540 Climbing Aus ATC (RADAR)
09:40PM -33.0480 154.7490 55° Northeast 567 652 36,000  Level FlightAware
09:40PM -32.9910 154.8070 40° Northeast 495 570 36,000  Level FlightAware
09:41PM -32.9150 154.8820 40° Northeast 496 571 36,000  Level FlightAware
09:41PM -32.8550 154.9410 40° Northeast 497 572 36,000  Level FlightAware
09:42PM -32.7956 154.9996 40° Northeast 485 558 36,000  Level Aus ATC (RADAR)
09:42PM -32.7750 155.0200 40° Northeast 498 573 36,000  Level FlightAware
09:43PM -32.7120 155.0810 39° Northeast 499 574 36,000  Level FlightAware
09:43PM -32.6500 155.1410 39° Northeast 501 577 36,000  Level FlightAware
09:44PM -32.5900 155.1990 39° Northeast 503 579 36,000  Level FlightAware
09:45PM -32.5230 155.2650 40° Northeast 504 580 36,000  Level FlightAware
09:45PM -32.4510 155.3350 39° Northeast 506 582 36,000  Level FlightAware
09:46PM -32.3870 155.3960 39° Northeast 509 586 36,000  Level FlightAware
09:46PM -32.3240 155.4570 39° Northeast 510 587 36,000  Level FlightAware
09:47PM -32.2460 155.5320 39° Northeast 511 588 36,000  Level FlightAware
09:48PM -32.1796 155.5954 39° Northeast 499 574 36,000  Level Aus ATC (RADAR)
09:48PM -32.1940 155.5820 39° Northeast 511 588 36,000  Level FlightAware
09:48PM -32.1380 155.6350 39° Northeast 511 588 36,000  Level FlightAware
09:49PM -32.0820 155.6890 39° Northeast 511 588 36,000  Level FlightAware
09:49PM -32.0260 155.7430 39° Northeast 511 588 36,000  Level FlightAware
09:50PM -31.9690 155.7970 39° Northeast 511 588 36,000  Level FlightAware
09:51PM -31.9130 155.8500 39° Northeast 511 588 36,000  Level FlightAware
09:51PM -31.8550 155.9050 39° Northeast 511 588 36,000  Level FlightAware
09:52PM -31.7990 155.9590 39° Northeast 511 588 36,000  Level FlightAware
09:52PM -31.7430 156.0120 39° Northeast 511 588 36,000  Level FlightAware
09:53PM -31.6870 156.0660 39° Northeast 511 588 36,000  Level FlightAware
09:54PM -31.6300 156.1190 38° Northeast 511 588 36,000  Level FlightAware
09:54PM -31.5740 156.1730 39° Northeast 511 588 36,000  Level FlightAware
09:55PM -31.5180 156.2260 39° Northeast 511 588 36,000  Level FlightAware
09:55PM -31.4620 156.2800 39° Northeast 511 588 36,000  Level FlightAware
09:56PM -31.4050 156.3330 38° Northeast 511 588 36,000  Level FlightAware
09:57PM -31.3490 156.3860 39° Northeast 511 588 36,000 -120 Level FlightAware
09:58PM -31.0718 156.6439 39° Northeast 528 608 35,900 -120 Descending Aus ATC (RADAR)
09:58PM -30.9952 156.7150 39° Northeast 529 609 35,900  Level Aus ATC (RADAR)
09:59PM -30.9092 156.7950 39° Northeast 529 609 35,900  Level Aus ATC (RADAR)
10:00PM -30.8421 156.8573 39° Northeast 529 609 35,900  Level Aus ATC (RADAR)
10:00PM -30.7467 156.9455 38° Northeast 527 606 35,900  Level Aus ATC (RADAR)
10:01PM -30.6995 156.9890 38° Northeast 523 602 35,900  Level Aus ATC (RADAR)
10:02PM -30.5294 157.1455 38° Northeast 522 601 35,900  Level Aus ATC (RADAR)
10:03PM -30.4914 157.1801 38° Northeast 522 601 35,900  Level Aus ATC (RADAR)
10:03PM -30.4183 157.2477 39° Northeast 511 588 35,900  Level Aus ATC (RADAR)
10:04PM -30.3332 157.3258 38° Northeast 515 593 35,900  Level Aus ATC (RADAR)
10:05PM -30.2758 157.3783 38° Northeast 520 598 35,900  Level Aus ATC (RADAR)
10:05PM -30.1722 157.4735 38° Northeast 520 598 35,900  Level Aus ATC (RADAR)
10:06PM -30.1350 157.5081 39° Northeast 519 597 35,900  Level Aus ATC (RADAR)
10:07PM -29.9546 157.6719 38° Northeast 520 598 35,900  Level Aus ATC (RADAR)
10:08PM -29.8609 157.7570 38° Northeast 518 596 35,900  Level Aus ATC (RADAR)
10:09PM -29.8229 157.7913 38° Northeast 518 596 35,900  Level Aus ATC (RADAR)
10:09PM -29.7557 157.8516 38° Northeast 520 598 35,900  Level Aus ATC (RADAR)
10:10PM -29.6403 157.9544 38° Northeast 523 602 35,900  Level Aus ATC (RADAR)
10:11PM -29.5727 158.0143 38° Northeast 524 603 35,900  Level Aus ATC (RADAR)
10:11PM -29.5157 158.0644 37° Northeast 523 602 35,900  Level Aus ATC (RADAR)
10:15PM -29.1225 158.4133 38° Northeast 36,000  Climbing Aus ATC (Calculated)
10:16PM -28.9058 158.6041 41° Northeast 36,000  Level Aus ATC (Calculated)
10:18PM -28.7765 158.7304 41° Northeast  Level Estimated
10:19PM -28.6782 158.8262 41° Northeast  Level Estimated
10:20PM -28.5798 158.9217 40° Northeast  Level Estimated
10:21PM -28.4813 159.0171 40° Northeast  Level Estimated
10:21PM -28.2950 159.1365 47° Northeast 36,000  Level Aus ATC (Calculated)
10:22PM -28.1931 159.2607 North 36,000  Level Aus ATC (Calculated)
10:23PM -28.1655 159.2619 40° Northeast  Level Estimated
10:24PM -28.0798 159.3698 40° Northeast  Level Estimated
10:25PM -27.9811 159.4645 40° Northeast  Level Estimated
10:25PM -27.9457 159.5605 360° North 36,000  Level Aus ATC (Calculated)
10:25PM -27.9457 159.5605 47° Northeast 36,000  Level Aus ATC (Calculated)
10:26PM -27.8544 159.6707 20° North 36,000  Level Aus ATC (Calculated)
10:27PM -27.8104 159.6890 40° Northeast  Level Estimated
10:27PM -27.7214 159.8305 288° West 36,000  Level Aus ATC (Calculated)
10:28PM -27.7138 159.8035 40° Northeast  Level Estimated
10:29PM -27.6070 159.9378 40° Northeast  Level Estimated
10:30PM -27.5075 160.0309 40° Northeast  Level Estimated
10:31PM -27.4079 160.1238 40° Northeast  Level Estimated
10:32PM -27.3083 160.2165 40° Northeast  Level Estimated
10:32PM -27.2978 160.3357 39° Northeast 36,000  Level Aus ATC (Calculated)
10:34PM -27.1139 160.5038 39° Northeast  Level Estimated
10:34PM -27.0827 160.5900 46° Northeast 36,000  Level Aus ATC (Calculated)
10:35PM -27.0176 160.6666 46° Northeast 36,000  Level Aus ATC (Calculated)
10:36PM -26.8914 160.8148 15° North 36,000  Level Aus ATC (Calculated)
10:37PM -26.8327 160.8329 39° Northeast  Level Estimated
10:38PM -26.7228 160.9653 39° Northeast  Level Estimated
10:38PM -26.6599 161.0854 38° Northeast 36,000  Level Aus ATC (Calculated)
10:40PM -26.4905 161.2343 38° Northeast  Level Estimated
10:40PM -26.5035 161.2672 38° Northeast 36,000  Level Aus ATC (Calculated)
10:42PM -26.3012 161.4432 38° Northeast  Level Estimated
10:43PM -26.1992 161.5317 38° Northeast  Level Estimated
10:44PM -26.0971 161.6201 38° Northeast  Level Estimated
10:45PM -25.9949 161.7082 38° Northeast  Level Estimated
10:46PM -25.8927 161.7963 38° Northeast  Level Estimated
10:47PM -25.7905 161.8842 38° Northeast  Level Estimated
10:48PM -25.6882 161.9719 38° Northeast  Level Estimated
10:49PM -25.5858 162.0595 38° Northeast  Level Estimated
10:50PM -25.4834 162.1469 38° Northeast  Level Estimated
10:50PM -25.5059 162.4093 36° Northeast 36,000  Level Aus ATC (Calculated)
10:51PM -25.4017 162.4940 36° Northeast  Level Estimated
10:52PM -25.2974 162.5785 36° Northeast  Level Estimated
10:53PM -25.1931 162.6629 36° Northeast  Level Estimated
10:54PM -25.0887 162.7471 36° Northeast  Level Estimated
10:55PM -24.9842 162.8313 36° Northeast  Level Estimated
10:56PM -24.8798 162.9152 36° Northeast  Level Estimated
10:57PM -24.7752 162.9990 36° Northeast  Level Estimated
10:58PM -24.6707 163.0827 36° Northeast  Level Estimated
10:59PM -24.5660 163.1662 36° Northeast  Level Estimated
11:00PM -24.4614 163.2496 36° Northeast  Level Estimated
11:01PM -24.3567 163.3329 36° Northeast  Level Estimated
11:02PM -24.2519 163.4160 36° Northeast  Level Estimated
11:03PM -24.1471 163.4990 36° Northeast  Level Estimated
11:04PM -24.0423 163.5819 36° Northeast  Level Estimated
11:05PM -23.9374 163.6646 36° Northeast  Level Estimated
11:06PM -23.8324 163.7472 36° Northeast  Level Estimated
11:07PM -23.7274 163.8296 36° Northeast  Level Estimated
11:08PM -23.6224 163.9119 36° Northeast  Level Estimated
11:09PM -23.5174 163.9941 36° Northeast  Level Estimated
11:10PM -23.4123 164.0762 36° Northeast  Level Estimated
11:11PM -23.3071 164.1581 36° Northeast  Level Estimated
11:12PM -23.2019 164.2399 36° Northeast  Level Estimated
11:13PM -23.0967 164.3215 36° Northeast  Level Estimated
11:14PM -22.9914 164.4030 35° Northeast  Level Estimated
11:15PM -22.8861 164.4845 35° Northeast  Level Estimated
11:16PM -22.7807 164.5657 35° Northeast  Level Estimated
11:17PM -22.6753 164.6469 35° Northeast  Level Estimated
11:18PM -22.5699 164.7279 35° Northeast  Level Estimated
11:19PM -22.4644 164.8088 35° Northeast  Level Estimated
11:20PM -22.3589 164.8896 35° Northeast  Level Estimated
11:21PM -22.2533 164.9703 35° Northeast  Level Estimated
11:22PM -22.1477 165.0508 35° Northeast  Level Estimated
11:23PM -22.0421 165.1312 35° Northeast  Level Estimated
11:24PM -21.9364 165.2115 35° Northeast  Level Estimated
11:25PM -21.8307 165.2917 35° Northeast  Level Estimated
11:26PM -21.7249 165.3718 35° Northeast  Level Estimated
11:27PM -21.6191 165.4517 35° Northeast  Level Estimated
11:28PM -21.5133 165.5316 35° Northeast  Level Estimated
11:29PM -21.4074 165.6113 35° Northeast  Level Estimated
11:30PM -21.3015 165.6909 35° Northeast  Level Estimated
11:31PM -21.1955 165.7703 35° Northeast  Level Estimated
11:32PM -21.0895 165.8497 35° Northeast  Level Estimated
11:33PM -20.9835 165.9290 35° Northeast  Level Estimated
11:34PM -20.8775 166.0081 35° Northeast  Level Estimated
11:35PM -20.7714 166.0871 35° Northeast  Level Estimated
11:36PM -20.6652 166.1660 35° Northeast  Level Estimated
11:37PM -20.5591 166.2449 35° Northeast  Level Estimated
11:38PM -20.4529 166.3236 35° Northeast  Level Estimated
11:39PM -20.3466 166.4021 35° Northeast  Level Estimated
11:40PM -20.2403 166.4806 35° Northeast  Level Estimated
11:41PM -20.1340 166.5590 35° Northeast  Level Estimated
11:42PM -20.0277 166.6373 35° Northeast  Level Estimated
11:43PM -19.9213 166.7154 35° Northeast  Level Estimated
11:44PM -19.8149 166.7935 35° Northeast  Level Estimated
11:45PM -19.7085 166.8714 35° Northeast  Level Estimated
11:46PM -19.6020 166.9493 35° Northeast  Level Estimated
11:47PM -19.4955 167.0270 35° Northeast  Level Estimated
11:48PM -19.3889 167.1047 35° Northeast  Level Estimated
11:49PM -19.2823 167.1822 34° Northeast  Level Estimated
11:50PM -19.1757 167.2597 34° Northeast  Level Estimated
11:51PM -19.0691 167.3370 34° Northeast  Level Estimated
11:52PM -18.9624 167.4142 34° Northeast  Level Estimated
11:53PM -18.8557 167.4914 34° Northeast  Level Estimated
11:54PM -18.7489 167.5684 34° Northeast  Level Estimated
11:55PM -18.6422 167.6454 34° Northeast  Level Estimated
11:56PM -18.5354 167.7222 34° Northeast  Level Estimated
11:57PM -18.4285 167.7990 34° Northeast  Level Estimated
11:58PM -18.3217 167.8756 34° Northeast  Level Estimated
11:59PM -18.2148 167.9522 34° Northeast  Level Estimated
12:00AM -18.1078 168.0287 34° Northeast  Level Estimated
12:01AM -18.0009 168.1051 34° Northeast  Level Estimated
12:02AM -17.8939 168.1814 34° Northeast  Level Estimated
12:03AM -17.7869 168.2575 34° Northeast  Level Estimated
12:04AM -17.6993 168.3198 34° Northeast  Level Estimated
12:05AM -17.6993 168.3198 37° Northeast  Level Estimated
12:06AM -17.6993 168.3198 143° Southeast  Level Estimated
12:07AM -17.6993 168.3198 37° Northeast  Level Estimated
12:08AM -17.6993 168.3198 143° Southeast  Level Estimated
12:09AM -17.6993 168.3198 37° Northeast  Level Estimated
12:10AM -17.6993 168.3198 143° Southeast  Level Estimated
12:11AM -17.6993 168.3198 37° Northeast  Level Estimated
12:12AM -17.6993 168.3198 143° Southeast  Level Estimated
12:13AM -17.6993 168.3198 37° Northeast  Level Estimated
12:14AM -17.6993 168.3198 143° Southeast  Level Estimated
12:15AM -17.6993 168.3198 37° Northeast  Level Estimated
12:16AM -17.6993 168.3198 143° Southeast  Level Estimated
12:17AM -17.6993 168.3198 37° Northeast  Level Estimated
12:18AM -17.6993 168.3198 143° Southeast  Level Estimated
12:19AM -17.6993 168.3198 37° Northeast  Level Estimated
12:20AM -17.6993 168.3198 143° Southeast  Level Estimated
12:21AM -17.6993 168.3198 37° Northeast  Level Estimated